createdAt,value
2022-10-30T00:00:30.630Z,102083.18
2022-10-30T00:02:58.276Z,102074.45
2022-10-30T00:05:05.092Z,102066.98
2022-10-30T00:07:11.687Z,102064.36
2022-10-30T00:09:17.890Z,102073.30
2022-10-30T00:11:24.586Z,102072.85
2022-10-30T00:13:31.009Z,102069.10
2022-10-30T00:15:37.598Z,102061.26
2022-10-30T00:17:44.339Z,102058.83
2022-10-30T00:19:50.722Z,102059.02
2022-10-30T00:24:06.253Z,102054.56
2022-10-30T00:26:12.678Z,102056.73
2022-10-30T00:28:19.038Z,102056.67
2022-10-30T00:30:25.446Z,102054.25
2022-10-30T00:32:31.930Z,102051.80
2022-10-30T00:34:38.334Z,102054.42
2022-10-30T00:36:47.330Z,102053.55
2022-10-30T00:38:53.519Z,102052.33
2022-10-30T00:41:00.793Z,102051.91
2022-10-30T00:43:07.064Z,102046.34
2022-10-30T00:45:15.374Z,102046.80
2022-10-30T00:47:44.806Z,102053.77
2022-10-30T00:50:13.910Z,102054.77
2022-10-30T00:52:22.897Z,102055.05
2022-10-30T00:54:29.366Z,102047.08
2022-10-30T00:56:37.032Z,102044.06
2022-10-30T00:58:56.820Z,102040.58
2022-10-30T01:01:07.005Z,102043.77
2022-10-30T01:03:13.908Z,102046.33
2022-10-30T01:05:23.448Z,102047.27
2022-10-30T01:07:30.172Z,102049.19
2022-10-30T01:09:37.998Z,102047.10
2022-10-30T01:11:44.442Z,102050.81
2022-10-30T01:13:53.223Z,102051.64
2022-10-30T01:16:18.176Z,102054.85
2022-10-30T01:18:51.947Z,102050.88
2022-10-30T01:21:23.343Z,102057.95
2022-10-30T01:23:45.183Z,102061.77
2022-10-30T01:26:22.761Z,102064.83
2022-10-30T01:28:52.125Z,102065.75
2022-10-30T01:31:21.292Z,102071.70
2022-10-30T01:33:45.051Z,102076.48
2022-10-30T01:36:03.092Z,102076.94
2022-10-30T01:38:18.325Z,102081.84
2022-10-30T01:40:26.910Z,102078.78
2022-10-30T01:42:45.110Z,102081.58
2022-10-30T01:44:53.728Z,102080.70
2022-10-30T01:47:32.541Z,102081.16
2022-10-30T01:49:51.413Z,102081.44
2022-10-30T01:52:08.306Z,102082.13
2022-10-30T01:55:00.561Z,102081.67
2022-10-30T01:57:25.494Z,102082.44
2022-10-30T01:59:49.437Z,102086.16
2022-10-30T02:01:55.851Z,102088.50
2022-10-30T02:06:14.719Z,102096.02
2022-10-30T02:08:23.186Z,102095.85
2022-10-30T02:10:31.486Z,102094.57
2022-10-30T02:12:38.172Z,102092.58
2022-10-30T02:14:50.045Z,102092.02
2022-10-30T02:17:00.672Z,102091.64
2022-10-30T02:19:08.581Z,102089.73
2022-10-30T02:21:14.989Z,102086.17
2022-10-30T02:23:23.403Z,102086.08
2022-10-30T02:25:29.887Z,102085.45
2022-10-30T02:27:36.118Z,102083.27
2022-10-30T02:29:42.445Z,102085.78
2022-10-30T02:31:48.538Z,102081.14
2022-10-30T02:33:54.520Z,102081.86
2022-10-30T02:36:00.929Z,102082.30
2022-10-30T02:38:07.006Z,102081.67
2022-10-30T02:40:13.439Z,102081.29
2022-10-30T02:42:19.635Z,102081.06
2022-10-30T02:44:26.291Z,102078.86
2022-10-30T02:46:32.791Z,102074.29
2022-10-30T02:48:39.070Z,102069.09
2022-10-30T02:50:45.715Z,102063.96
2022-10-30T02:52:51.748Z,102060.32
2022-10-30T02:54:58.869Z,102058.60
2022-10-30T02:57:07.871Z,102055.34
2022-10-30T02:59:14.382Z,102058.77
2022-10-30T03:01:21.815Z,102055.60
2022-10-30T03:03:30.181Z,102058.90
2022-10-30T03:05:36.629Z,102055.37
2022-10-30T03:07:43.231Z,102062.11
2022-10-30T03:09:49.622Z,102061.12
2022-10-30T03:11:55.901Z,102062.04
2022-10-30T03:14:02.781Z,102058.62
2022-10-30T03:16:11.727Z,102059.23
2022-10-30T03:18:18.195Z,102060.81
2022-10-30T03:20:27.173Z,102056.73
2022-10-30T03:22:33.590Z,102055.96
2022-10-30T03:24:39.771Z,102053.48
2022-10-30T03:26:46.678Z,102058.22
2022-10-30T03:28:52.991Z,102063.02
2022-10-30T03:31:08.366Z,102054.76
2022-10-30T03:33:14.923Z,102061.96
2022-10-30T03:35:21.294Z,102063.44
2022-10-30T03:37:27.591Z,102058.94
2022-10-30T03:39:34.093Z,102051.38
2022-10-30T03:41:44.541Z,102052.31
2022-10-30T03:43:52.088Z,102050.18
2022-10-30T03:45:58.900Z,102051.35
2022-10-30T03:48:07.629Z,102050.48
2022-10-30T03:50:14.427Z,102050.64
2022-10-30T03:52:20.914Z,102051.09
2022-10-30T03:54:28.177Z,102054.80
2022-10-30T03:56:34.588Z,102055.96
2022-10-30T03:58:42.257Z,102053.80
2022-10-30T04:00:50.552Z,102053.14
2022-10-30T04:02:56.815Z,102046.75
2022-10-30T04:05:04.190Z,102045.40
2022-10-30T04:07:10.718Z,102045.83
2022-10-30T04:09:17.459Z,102043.84
2022-10-30T04:11:23.625Z,102045.17
2022-10-30T04:13:29.708Z,102048.63
2022-10-30T04:15:36.150Z,102044.45
2022-10-30T04:17:42.492Z,102039.73
2022-10-30T04:19:49.498Z,102034.84
2022-10-30T04:21:55.680Z,102031.23
2022-10-30T04:24:01.837Z,102031.27
2022-10-30T04:26:09.036Z,102029.61
2022-10-30T04:28:17.055Z,102029.14
2022-10-30T04:30:26.125Z,102032.44
2022-10-30T04:32:32.453Z,102028.33
2022-10-30T04:34:40.637Z,102023.06
2022-10-30T04:36:46.954Z,102020.05
2022-10-30T04:38:53.497Z,102021.02
2022-10-30T04:41:00.636Z,102014.94
2022-10-30T04:43:20.223Z,102012.67
2022-10-30T04:45:28.857Z,102006.98
2022-10-30T04:47:35.183Z,102008.05
2022-10-30T04:49:41.931Z,102011.48
2022-10-30T04:51:48.543Z,102014.70
2022-10-30T04:53:56.208Z,102015.14
2022-10-30T04:56:02.641Z,102022.38
2022-10-30T04:58:11.186Z,102028.41
2022-10-30T05:00:19.065Z,102028.80
2022-10-30T05:02:26.724Z,102031.14
2022-10-30T05:04:33.286Z,102029.27
2022-10-30T05:06:41.151Z,102026.02
2022-10-30T05:08:47.783Z,102026.52
2022-10-30T05:11:07.332Z,102026.70
2022-10-30T05:13:15.017Z,102027.75
2022-10-30T05:15:22.311Z,102025.08
2022-10-30T05:19:38.714Z,102026.45
2022-10-30T05:21:45.215Z,102032.84
2022-10-30T05:23:52.371Z,102042.02
2022-10-30T05:26:01.296Z,102041.07
2022-10-30T05:28:08.869Z,102049.14
2022-10-30T05:30:20.483Z,102052.86
2022-10-30T05:32:27.506Z,102051.10
2022-10-30T05:34:35.053Z,102048.26
2022-10-30T05:36:41.409Z,102048.48
2022-10-30T05:38:48.875Z,102049.97
2022-10-30T05:41:03.444Z,102053.82
2022-10-30T05:43:10.221Z,102050.61
2022-10-30T05:45:17.852Z,102047.54
2022-10-30T05:47:24.107Z,102055.17
2022-10-30T05:49:32.833Z,102052.72
2022-10-30T05:51:40.773Z,102048.00
2022-10-30T05:53:52.730Z,102053.81
2022-10-30T05:56:01.505Z,102052.01
2022-10-30T05:58:11.701Z,102052.54
2022-10-30T06:00:19.558Z,102056.27
2022-10-30T06:02:26.172Z,102056.83
2022-10-30T06:04:32.535Z,102059.41
2022-10-30T06:06:41.054Z,102066.89
2022-10-30T06:08:47.589Z,102062.35
2022-10-30T06:11:09.916Z,102060.27
2022-10-30T06:13:20.049Z,102054.63
2022-10-30T06:15:49.502Z,102053.10
2022-10-30T06:17:56.619Z,102051.77
2022-10-30T06:20:18.818Z,102043.61
2022-10-30T06:22:43.684Z,102040.15
2022-10-30T06:24:54.754Z,102037.91
2022-10-30T06:27:24.048Z,102038.58
2022-10-30T06:29:30.345Z,102037.52
2022-10-30T06:31:36.879Z,102037.34
2022-10-30T06:33:43.170Z,102040.64
2022-10-30T06:35:53.073Z,102040.06
2022-10-30T06:38:01.288Z,102041.95
2022-10-30T06:40:10.874Z,102043.73
2022-10-30T06:42:49.454Z,102042.21
2022-10-30T06:45:09.197Z,102040.08
2022-10-30T06:47:15.508Z,102035.45
2022-10-30T06:49:21.969Z,102033.96
2022-10-30T06:51:29.973Z,102034.44
2022-10-30T06:53:37.662Z,102038.59
2022-10-30T06:56:05.165Z,102038.20
2022-10-30T06:58:25.763Z,102035.45
2022-10-30T07:00:35.785Z,102031.86
2022-10-30T07:03:05.772Z,102036.21
2022-10-30T07:05:12.374Z,102038.83
2022-10-30T07:07:19.936Z,102043.23
2022-10-30T07:09:25.994Z,102043.88
2022-10-30T07:11:32.182Z,102046.08
2022-10-30T07:13:57.247Z,102045.77
2022-10-30T07:16:14.642Z,102039.13
2022-10-30T07:18:23.305Z,102041.38
2022-10-30T07:20:36.122Z,102037.98
2022-10-30T07:22:43.007Z,102040.81
2022-10-30T07:24:50.338Z,102039.19
2022-10-30T07:27:16.770Z,102035.07
2022-10-30T07:29:29.422Z,102037.20
2022-10-30T07:32:14.160Z,102033.73
2022-10-30T07:34:32.639Z,102032.91
2022-10-30T07:36:59.511Z,102028.73
2022-10-30T07:39:18.744Z,102030.57
2022-10-30T07:41:44.740Z,102037.14
2022-10-30T07:44:22.376Z,102038.23
2022-10-30T07:46:47.026Z,102038.54
2022-10-30T07:48:58.937Z,102035.70
2022-10-30T07:51:19.833Z,102038.13
2022-10-30T07:53:26.177Z,102039.52
2022-10-30T07:55:32.374Z,102040.21
2022-10-30T07:57:54.398Z,102039.98
2022-10-30T08:00:04.603Z,102034.86
2022-10-30T08:02:20.414Z,102027.48
2022-10-30T08:04:47.014Z,102030.31
2022-10-30T08:07:11.009Z,102036.65
2022-10-30T08:09:18.848Z,102037.11
2022-10-30T08:11:26.465Z,102035.69
2022-10-30T08:13:34.250Z,102036.86
2022-10-30T08:15:40.659Z,102034.80
2022-10-30T08:17:50.020Z,102039.39
2022-10-30T08:19:58.239Z,102041.50
2022-10-30T08:22:04.899Z,102030.57
2022-10-30T08:24:13.357Z,102029.31
2022-10-30T08:26:20.777Z,102031.20
2022-10-30T08:28:29.961Z,102030.63
2022-10-30T08:30:40.570Z,102033.02
2022-10-30T08:32:49.506Z,102038.02
2022-10-30T08:35:18.624Z,102041.59
2022-10-30T08:37:26.109Z,102042.54
2022-10-30T08:39:32.644Z,102045.86
2022-10-30T08:41:47.511Z,102044.70
2022-10-30T08:43:53.804Z,102043.07
2022-10-30T08:46:02.492Z,102039.57
2022-10-30T08:48:11.878Z,102039.50
2022-10-30T08:52:31.800Z,102047.75
2022-10-30T08:54:37.982Z,102047.02
2022-10-30T08:56:45.502Z,102045.64
2022-10-30T08:58:55.561Z,102047.55
2022-10-30T09:01:02.677Z,102052.08
2022-10-30T09:03:27.896Z,102053.57
2022-10-30T09:05:34.581Z,102053.06
2022-10-30T09:08:02.142Z,102049.98
2022-10-30T09:10:41.721Z,102049.02
2022-10-30T09:12:48.137Z,102047.58
2022-10-30T09:14:55.075Z,102039.86
2022-10-30T09:17:02.147Z,102039.54
2022-10-30T09:19:12.485Z,102039.27
2022-10-30T09:21:20.802Z,102042.59
2022-10-30T09:23:29.422Z,102047.13
2022-10-30T09:25:51.334Z,102054.34
2022-10-30T09:28:20.422Z,102052.13
2022-10-30T09:30:44.877Z,102049.17
2022-10-30T09:33:03.436Z,102052.94
2022-10-30T09:35:30.101Z,102049.94
2022-10-30T09:37:38.420Z,102052.52
2022-10-30T09:39:53.175Z,102055.52
2022-10-30T09:42:37.745Z,102058.83
2022-10-30T09:45:15.093Z,102059.30
2022-10-30T09:47:25.714Z,102063.48
2022-10-30T09:49:41.468Z,102065.61
2022-10-30T09:52:04.105Z,102071.66
2022-10-30T09:54:43.936Z,102075.67
2022-10-30T09:57:08.112Z,102075.26
2022-10-30T09:59:43.524Z,102076.27
2022-10-30T10:02:18.605Z,102076.80
2022-10-30T10:04:35.832Z,102077.15
2022-10-30T10:06:57.329Z,102073.34
2022-10-30T10:09:22.772Z,102069.25
2022-10-30T10:12:09.955Z,102062.09
2022-10-30T10:14:32.358Z,102061.65
2022-10-30T10:16:43.625Z,102065.84
2022-10-30T10:18:54.265Z,102065.76
2022-10-30T10:21:09.011Z,102056.68
2022-10-30T10:23:35.301Z,102055.60
2022-10-30T10:25:44.508Z,102050.46
2022-10-30T10:28:13.864Z,102046.73
2022-10-30T10:30:22.867Z,102038.13
2022-10-30T10:32:35.034Z,102039.70
2022-10-30T10:34:44.191Z,102040.86
2022-10-30T10:36:53.230Z,102033.48
2022-10-30T10:39:04.844Z,102037.25
2022-10-30T10:41:42.744Z,102035.42
2022-10-30T10:43:49.369Z,102034.32
2022-10-30T10:46:02.012Z,102028.88
2022-10-30T10:48:43.076Z,102026.48
2022-10-30T10:50:53.786Z,102029.20
2022-10-30T10:53:36.106Z,102023.73
2022-10-30T10:55:46.096Z,102025.78
2022-10-30T10:57:54.479Z,102026.53
2022-10-30T11:00:06.689Z,102028.28
2022-10-30T11:02:44.525Z,102028.80
2022-10-30T11:04:56.824Z,102032.10
2022-10-30T11:07:20.817Z,102035.08
2022-10-30T11:09:29.527Z,102029.58
2022-10-30T11:11:35.833Z,102036.23
2022-10-30T11:13:44.682Z,102036.34
2022-10-30T11:16:31.887Z,102030.46
2022-10-30T11:18:38.852Z,102038.12
2022-10-30T11:21:04.416Z,102039.35
2022-10-30T11:23:55.116Z,102038.62
2022-10-30T11:26:02.861Z,102034.84
2022-10-30T11:28:42.503Z,102038.60
2022-10-30T11:30:48.899Z,102040.52
2022-10-30T11:32:57.100Z,102042.60
2022-10-30T11:35:09.540Z,102048.86
2022-10-30T11:37:32.514Z,102039.04
2022-10-30T11:39:38.678Z,102043.60
2022-10-30T11:41:56.915Z,102046.55
2022-10-30T11:44:03.457Z,102044.95
2022-10-30T11:46:22.265Z,102050.89
2022-10-30T11:48:34.862Z,102056.20
2022-10-30T11:50:49.657Z,102053.59
2022-10-30T11:53:11.184Z,102051.04
2022-10-30T11:55:34.920Z,102051.65
2022-10-30T11:57:46.574Z,102060.59
2022-10-30T12:00:03.787Z,102060.19
2022-10-30T12:02:31.234Z,102054.90
2022-10-30T12:04:37.757Z,102055.43
2022-10-30T12:06:44.242Z,102054.60
2022-10-30T12:09:13.474Z,102060.80
2022-10-30T12:11:20.095Z,102056.54
2022-10-30T12:13:27.854Z,102054.90
2022-10-30T12:15:39.032Z,102053.88
2022-10-30T12:17:54.241Z,102056.99
2022-10-30T12:20:00.938Z,102059.61
2022-10-30T12:22:09.911Z,102057.40
2022-10-30T12:24:24.754Z,102055.27
2022-10-30T12:26:31.798Z,102049.11
2022-10-30T12:28:39.626Z,102047.13
2022-10-30T12:31:00.335Z,102046.43
2022-10-30T12:33:18.676Z,102042.12
2022-10-30T12:36:00.188Z,102041.20
2022-10-30T12:38:15.357Z,102039.84
2022-10-30T12:40:30.326Z,102042.04
2022-10-30T12:42:41.697Z,102044.50
2022-10-30T12:45:07.836Z,102044.27
2022-10-30T12:47:59.398Z,102041.13
2022-10-30T12:50:15.404Z,102039.10
2022-10-30T12:52:38.645Z,102041.08
2022-10-30T12:54:54.490Z,102047.48
2022-10-30T12:57:35.366Z,102049.75
2022-10-30T12:59:45.763Z,102055.14
2022-10-30T13:02:01.052Z,102052.38
2022-10-30T13:04:24.943Z,102051.72
2022-10-30T13:06:38.402Z,102047.84
2022-10-30T13:09:00.453Z,102041.48
2022-10-30T13:11:21.555Z,102040.00
2022-10-30T13:13:37.744Z,102039.22
2022-10-30T13:15:57.095Z,102038.54
2022-10-30T13:18:19.066Z,102046.92
2022-10-30T13:20:27.786Z,102047.46
2022-10-30T13:22:48.386Z,102042.27
2022-10-30T13:25:18.088Z,102043.44
2022-10-30T13:27:52.607Z,102036.57
2022-10-30T13:30:02.609Z,102039.56
2022-10-30T13:32:47.103Z,102042.79
2022-10-30T13:35:09.803Z,102039.66
2022-10-30T13:37:25.184Z,102033.56
2022-10-30T13:39:44.954Z,102033.83
2022-10-30T13:42:04.883Z,102038.75
2022-10-30T13:44:22.504Z,102038.70
2022-10-30T13:46:34.659Z,102041.86
2022-10-30T13:48:50.474Z,102037.89
2022-10-30T13:51:14.334Z,102038.19
2022-10-30T13:53:28.265Z,102041.88
2022-10-30T13:55:37.244Z,102047.56
2022-10-30T13:57:53.108Z,102054.04
2022-10-30T14:00:19.210Z,102056.60
2022-10-30T14:02:33.147Z,102061.55
2022-10-30T14:04:52.751Z,102060.41
2022-10-30T14:07:32.309Z,102063.58
2022-10-30T14:09:53.935Z,102064.95
2022-10-30T14:12:23.099Z,102059.98
2022-10-30T14:14:33.663Z,102058.52
2022-10-30T14:16:48.353Z,102051.29
2022-10-30T14:19:04.590Z,102049.16
2022-10-30T14:21:38.140Z,102048.38
2022-10-30T14:23:45.628Z,102045.81
2022-10-30T14:26:04.389Z,102044.15
2022-10-30T14:28:23.347Z,102040.87
2022-10-30T14:30:30.341Z,102038.86
2022-10-30T14:32:39.536Z,102037.35
2022-10-30T14:34:53.478Z,102039.81
2022-10-30T14:36:59.961Z,102044.61
2022-10-30T14:39:12.114Z,102053.86
2022-10-30T14:41:53.523Z,102058.12
2022-10-30T14:44:13.729Z,102049.66
2022-10-30T14:46:36.420Z,102041.40
2022-10-30T14:49:01.406Z,102037.95
2022-10-30T14:51:52.637Z,102042.96
2022-10-30T14:54:40.254Z,102050.48
2022-10-30T14:56:50.583Z,102056.64
2022-10-30T14:59:17.547Z,102061.61
2022-10-30T15:01:51.583Z,102054.58
2022-10-30T15:04:07.948Z,102052.96
2022-10-30T15:06:52.726Z,102058.94
2022-10-30T15:09:10.189Z,102065.97
2022-10-30T15:11:40.388Z,102072.20
2022-10-30T15:14:20.946Z,102076.30
2022-10-30T15:16:37.917Z,102074.97
2022-10-30T15:18:56.914Z,102072.73
2022-10-30T15:21:08.779Z,102068.26
2022-10-30T15:23:31.146Z,102069.55
2022-10-30T15:25:50.990Z,102068.91
2022-10-30T15:27:58.722Z,102070.75
2022-10-30T15:30:05.846Z,102066.51
2022-10-30T15:32:21.369Z,102068.55
2022-10-30T15:34:29.963Z,102066.59
2022-10-30T15:36:54.487Z,102068.23
2022-10-30T15:39:23.298Z,102066.06
2022-10-30T15:41:30.583Z,102073.14
2022-10-30T15:43:42.324Z,102074.80
2022-10-30T15:45:50.925Z,102074.97
2022-10-30T15:48:05.431Z,102075.42
2022-10-30T15:50:13.292Z,102075.98
2022-10-30T15:52:24.593Z,102079.25
2022-10-30T15:54:33.266Z,102083.98
2022-10-30T15:57:17.902Z,102082.95
2022-10-30T15:59:20.806Z,102085.94
2022-10-30T16:01:31.478Z,102084.37
2022-10-30T16:03:37.602Z,102087.81
2022-10-30T16:05:44.169Z,102075.48
2022-10-30T16:07:50.692Z,102079.31
2022-10-30T16:10:02.938Z,102078.48
2022-10-30T16:12:12.922Z,102071.16
2022-10-30T16:14:25.939Z,102064.22
2022-10-30T16:16:33.316Z,102059.86
2022-10-30T16:18:40.672Z,102063.23
2022-10-30T16:20:59.978Z,102066.80
2022-10-30T16:23:06.807Z,102063.85
2022-10-30T16:25:14.053Z,102064.84
2022-10-30T16:27:23.086Z,102071.16
2022-10-30T16:29:30.174Z,102070.23
2022-10-30T16:31:38.450Z,102065.99
2022-10-30T16:33:48.097Z,102073.72
2022-10-30T16:35:55.957Z,102077.67
2022-10-30T16:38:04.618Z,102076.08
2022-10-30T16:40:30.634Z,102075.88
2022-10-30T16:42:36.915Z,102074.30
2022-10-30T16:44:43.412Z,102066.27
2022-10-30T16:46:53.695Z,102065.71
2022-10-30T16:49:04.719Z,102068.30
2022-10-30T16:51:17.574Z,102068.98
2022-10-30T16:53:28.623Z,102068.24
2022-10-30T16:55:37.076Z,102067.32
2022-10-30T16:57:46.220Z,102065.42
2022-10-30T16:59:54.004Z,102064.92
2022-10-30T17:02:06.736Z,102063.85
2022-10-30T17:04:17.841Z,102062.78
2022-10-30T17:06:41.652Z,102061.48
2022-10-30T17:08:48.230Z,102063.86
2022-10-30T17:11:07.175Z,102064.48
2022-10-30T17:13:59.844Z,102061.20
2022-10-30T17:16:23.466Z,102059.66
2022-10-30T17:18:34.532Z,102058.41
2022-10-30T17:20:41.179Z,102059.16
2022-10-30T17:22:50.755Z,102058.77
2022-10-30T17:24:56.971Z,102059.42
2022-10-30T17:27:08.813Z,102057.91
2022-10-30T17:29:33.104Z,102061.20
2022-10-30T17:31:39.260Z,102057.92
2022-10-30T17:33:47.290Z,102060.52
2022-10-30T17:38:05.375Z,102061.11
2022-10-30T17:40:14.075Z,102064.35
2022-10-30T17:42:20.541Z,102062.36
2022-10-30T17:44:27.744Z,102053.75
2022-10-30T17:46:34.422Z,102054.73
2022-10-30T17:48:42.618Z,102055.63
2022-10-30T17:50:48.884Z,102054.02
2022-10-30T17:52:55.343Z,102054.06
2022-10-30T17:55:03.352Z,102060.84
2022-10-30T17:57:14.764Z,102062.83
2022-10-30T17:59:21.253Z,102061.52
2022-10-30T18:01:28.621Z,102062.15
2022-10-30T18:03:35.133Z,102064.83
2022-10-30T18:05:43.979Z,102067.79
2022-10-30T18:10:01.425Z,102062.80
2022-10-30T18:12:09.633Z,102065.23
2022-10-30T18:14:15.588Z,102062.13
2022-10-30T18:16:22.130Z,102056.96
2022-10-30T18:18:28.674Z,102060.23
2022-10-30T18:20:35.478Z,102055.04
2022-10-30T18:22:41.744Z,102051.86
2022-10-30T18:24:48.257Z,102049.65
2022-10-30T18:26:55.901Z,102050.23
2022-10-30T18:29:02.260Z,102047.74
2022-10-30T18:31:12.039Z,102044.27
2022-10-30T18:33:19.041Z,102047.34
2022-10-30T18:35:37.324Z,102042.60
2022-10-30T18:37:43.852Z,102038.95
2022-10-30T18:39:50.022Z,102046.09
2022-10-30T18:41:56.509Z,102042.19
2022-10-30T18:44:03.259Z,102038.71
2022-10-30T18:46:16.357Z,102030.38
2022-10-30T18:48:23.099Z,102027.90
2022-10-30T18:50:31.585Z,102032.66
2022-10-30T18:52:37.807Z,102032.29
2022-10-30T18:54:44.489Z,102031.31
2022-10-30T18:56:50.592Z,102027.98
2022-10-30T18:59:01.972Z,102027.52
2022-10-30T19:01:12.610Z,102020.00
2022-10-30T19:03:19.337Z,102020.19
2022-10-30T19:05:34.172Z,102018.84
2022-10-30T19:07:40.669Z,102016.07
2022-10-30T19:09:47.116Z,102011.12
2022-10-30T19:11:53.740Z,102009.73
2022-10-30T19:14:00.369Z,102005.59
2022-10-30T19:16:12.937Z,102007.08
2022-10-30T19:18:20.439Z,102002.52
2022-10-30T19:20:37.646Z,102003.64
2022-10-30T19:22:50.777Z,101999.73
2022-10-30T19:24:57.186Z,102001.17
2022-10-30T19:27:03.747Z,101996.72
2022-10-30T19:29:10.130Z,101994.23
2022-10-30T19:31:18.668Z,101995.73
2022-10-30T19:33:25.592Z,101987.32
2022-10-30T19:35:32.146Z,101980.36
2022-10-30T19:37:39.192Z,101978.77
2022-10-30T19:39:45.494Z,101970.95
2022-10-30T19:41:51.809Z,101963.17
2022-10-30T19:43:58.267Z,101960.31
2022-10-30T19:46:04.941Z,101957.56
2022-10-30T19:48:24.701Z,101948.80
2022-10-30T19:50:39.986Z,101944.02
2022-10-30T19:52:46.009Z,101941.33
2022-10-30T19:54:52.580Z,101941.88
2022-10-30T19:56:59.050Z,101942.23
2022-10-30T19:59:07.120Z,101933.55
2022-10-30T20:01:15.487Z,101928.71
2022-10-30T20:03:22.706Z,101927.14
2022-10-30T20:05:32.274Z,101924.20
2022-10-30T20:07:38.919Z,101917.66
2022-10-30T20:09:45.268Z,101912.20
2022-10-30T20:11:51.579Z,101908.25
2022-10-30T20:13:58.181Z,101910.06
2022-10-30T20:16:05.819Z,101905.44
2022-10-30T20:18:20.469Z,101900.40
2022-10-30T20:20:33.577Z,101893.06
2022-10-30T20:22:40.565Z,101886.67
2022-10-30T20:24:46.543Z,101879.63
2022-10-30T20:26:54.341Z,101879.13
2022-10-30T20:29:02.838Z,101869.62
2022-10-30T20:31:12.031Z,101873.17
2022-10-30T20:33:20.312Z,101871.02
2022-10-30T20:35:26.872Z,101872.33
2022-10-30T20:37:33.289Z,101874.69
2022-10-30T20:39:39.819Z,101871.63
2022-10-30T20:41:45.974Z,101866.95
2022-10-30T20:43:52.995Z,101860.53
2022-10-30T20:46:00.485Z,101854.66
2022-10-30T20:48:06.905Z,101856.02
2022-10-30T20:50:13.157Z,101854.37
2022-10-30T20:52:19.424Z,101846.76
2022-10-30T20:54:25.681Z,101842.49
2022-10-30T20:56:31.716Z,101838.91
2022-10-30T20:58:38.011Z,101837.66
2022-10-30T21:00:44.363Z,101841.05
2022-10-30T21:02:51.137Z,101842.34
2022-10-30T21:05:03.173Z,101838.74
2022-10-30T21:07:14.193Z,101835.67
2022-10-30T21:09:20.476Z,101834.91
2022-10-30T21:11:26.709Z,101831.17
2022-10-30T21:13:34.799Z,101827.16
2022-10-30T21:15:48.260Z,101825.83
2022-10-30T21:17:54.586Z,101820.12
2022-10-30T21:20:00.683Z,101826.12
2022-10-30T21:22:07.116Z,101825.59
2022-10-30T21:24:14.359Z,101825.55
2022-10-30T21:26:20.683Z,101819.95
2022-10-30T21:28:27.456Z,101818.14
2022-10-30T21:30:33.792Z,101814.45
2022-10-30T21:32:40.207Z,101813.45
2022-10-30T21:34:46.688Z,101809.32
2022-10-30T21:36:52.991Z,101804.63
2022-10-30T21:39:00.436Z,101795.40
2022-10-30T21:41:06.793Z,101799.02
2022-10-30T21:43:12.875Z,101799.30
2022-10-30T21:45:18.939Z,101800.04
2022-10-30T21:47:25.061Z,101791.41
2022-10-30T21:49:31.466Z,101785.23
2022-10-30T21:51:37.923Z,101779.77
2022-10-30T21:53:45.166Z,101778.90
2022-10-30T21:55:51.612Z,101780.38
2022-10-30T21:57:58.181Z,101786.02
2022-10-30T22:00:06.174Z,101779.35
2022-10-30T22:02:17.137Z,101771.04
2022-10-30T22:04:23.954Z,101766.61
2022-10-30T22:06:30.746Z,101773.54
2022-10-30T22:08:37.737Z,101774.47
2022-10-30T22:10:44.937Z,101778.49
2022-10-30T22:12:51.286Z,101765.83
2022-10-30T22:14:57.788Z,101765.91
2022-10-30T22:17:04.189Z,101772.05
2022-10-30T22:19:11.853Z,101777.70
2022-10-30T22:21:18.756Z,101777.23
2022-10-30T22:23:25.201Z,101773.17
2022-10-30T22:25:32.196Z,101772.66
2022-10-30T22:27:38.922Z,101779.17
2022-10-30T22:29:45.489Z,101777.34
2022-10-30T22:31:51.751Z,101770.66
2022-10-30T22:33:59.861Z,101762.84
2022-10-30T22:36:16.979Z,101758.17
2022-10-30T22:38:23.473Z,101754.51
2022-10-30T22:40:29.687Z,101749.17
2022-10-30T22:42:37.082Z,101742.45
2022-10-30T22:44:43.536Z,101736.34
2022-10-30T22:46:49.769Z,101731.73
2022-10-30T22:48:56.174Z,101726.91
2022-10-30T22:51:05.195Z,101731.59
2022-10-30T22:53:11.472Z,101732.44
2022-10-30T22:55:18.039Z,101737.66
2022-10-30T22:57:24.047Z,101740.73
2022-10-30T22:59:30.034Z,101744.04
2022-10-30T23:01:37.868Z,101735.20
2022-10-30T23:03:45.185Z,101731.27
2022-10-30T23:05:59.686Z,101732.17
2022-10-30T23:08:06.530Z,101729.13
2022-10-30T23:10:13.034Z,101719.14
2022-10-30T23:12:19.270Z,101711.25
2022-10-30T23:14:26.248Z,101710.52
2022-10-30T23:16:32.793Z,101708.58
2022-10-30T23:18:39.560Z,101709.98
2022-10-30T23:20:47.854Z,101705.85
2022-10-30T23:22:54.016Z,101703.08
2022-10-30T23:25:00.347Z,101703.04
2022-10-30T23:27:06.994Z,101700.55
2022-10-30T23:29:13.459Z,101694.02
2022-10-30T23:31:22.123Z,101689.20
2022-10-30T23:33:28.467Z,101684.52
2022-10-30T23:35:34.455Z,101672.06
2022-10-30T23:37:40.956Z,101669.60
2022-10-30T23:39:47.233Z,101669.09
2022-10-30T23:41:53.752Z,101665.54
2022-10-30T23:44:01.622Z,101662.08
2022-10-30T23:46:08.157Z,101654.33
2022-10-30T23:48:14.072Z,101656.70
2022-10-30T23:50:20.465Z,101660.70
2022-10-30T23:52:26.611Z,101659.58
2022-10-30T23:54:33.107Z,101657.88
2022-10-30T23:56:39.558Z,101652.87
2022-10-30T23:58:47.595Z,101652.71
